createdAt,value
2023-04-24T00:01:07.052Z,99387.73
2023-04-24T00:03:19.336Z,99389.38
2023-04-24T00:05:31.169Z,99385.53
2023-04-24T00:07:43.613Z,99384.34
2023-04-24T00:09:55.992Z,99381.22
2023-04-24T00:12:07.252Z,99377.73
2023-04-24T00:14:17.830Z,99376.77
2023-04-24T00:16:29.448Z,99377.17
2023-04-24T00:18:42.793Z,99372.2
2023-04-24T00:20:54.571Z,99372.72
2023-04-24T00:23:06.833Z,99373.31
2023-04-24T00:25:19.092Z,99363.88
2023-04-24T00:27:31.013Z,99365.67
2023-04-24T00:29:44.565Z,99368.48
2023-04-24T00:31:57.827Z,99361.25
2023-04-24T00:34:10.651Z,99360.13
2023-04-24T00:36:22.321Z,99356.04
2023-04-24T00:38:33.879Z,99352.13
2023-04-24T00:40:45.735Z,99351.39
2023-04-24T00:42:57.958Z,99348.72
2023-04-24T00:45:13.432Z,99351.91
2023-04-24T00:47:28.471Z,99352.88
2023-04-24T00:49:41.486Z,99353.95
2023-04-24T00:51:53.052Z,99361.67
2023-04-24T00:54:04.161Z,99366.55
2023-04-24T00:56:17.275Z,99361.01
2023-04-24T00:58:28.852Z,99354.2
2023-04-24T01:00:41.096Z,99351
2023-04-24T01:02:52.118Z,99355.93
2023-04-24T01:05:03.992Z,99354
2023-04-24T01:07:15.755Z,99352.23
2023-04-24T01:09:29.414Z,99352.66
2023-04-24T01:11:41.075Z,99348.19
2023-04-24T01:13:54.040Z,99348.83
2023-04-24T01:16:09.612Z,99341.25
2023-04-24T01:18:25.505Z,99340.86
2023-04-24T01:20:38.075Z,99340.61
2023-04-24T01:22:50.098Z,99340.33
2023-04-24T01:25:15.988Z,99340.12
2023-04-24T01:27:30.034Z,99344.3
2023-04-24T01:29:42.052Z,99342.03
2023-04-24T01:31:55.037Z,99343.45
2023-04-24T01:34:07.939Z,99351.21
2023-04-24T01:36:19.718Z,99350.06
2023-04-24T01:38:39.839Z,99345.45
2023-04-24T01:40:53.238Z,99342.67
2023-04-24T01:43:05.459Z,99344.39
2023-04-24T01:45:18.177Z,99342.23
2023-04-24T01:47:29.225Z,99340.92
2023-04-24T01:49:43.380Z,99343.11
2023-04-24T01:51:56.138Z,99336.3
2023-04-24T01:54:08.578Z,99340.88
2023-04-24T01:56:20.254Z,99334.42
2023-04-24T01:58:34.856Z,99332.91
2023-04-24T02:00:47.403Z,99329.34
2023-04-24T02:02:59.882Z,99325.54
2023-04-24T02:05:12.696Z,99324.89
2023-04-24T02:07:27.089Z,99320.94
2023-04-24T02:09:39.908Z,99317.7
2023-04-24T02:11:53.064Z,99316.79
2023-04-24T02:14:05.776Z,99317.13
2023-04-24T02:16:17.680Z,99319.41
2023-04-24T02:18:29.613Z,99317.41
2023-04-24T02:20:42.212Z,99317.82
2023-04-24T02:22:53.892Z,99310.45
2023-04-24T02:25:06.104Z,99308.34
2023-04-24T02:27:17.642Z,99304.7
2023-04-24T02:29:30.693Z,99300.86
2023-04-24T02:31:44.163Z,99293.98
2023-04-24T02:33:56.835Z,99298.77
2023-04-24T02:36:08.535Z,99294.83
2023-04-24T02:38:20.833Z,99299.19
2023-04-24T02:40:32.393Z,99298.87
2023-04-24T02:42:44.724Z,99298.47
2023-04-24T02:44:57.997Z,99294.55
2023-04-24T02:47:10.890Z,99295.59
2023-04-24T02:49:22.854Z,99292.56
2023-04-24T02:51:35.308Z,99296.35
2023-04-24T02:53:48.424Z,99293.33
2023-04-24T02:55:59.890Z,99294.31
2023-04-24T02:58:10.330Z,99301.73
2023-04-24T03:00:22.797Z,99300.82
2023-04-24T03:02:34.508Z,99297.8
2023-04-24T03:04:47.543Z,99298.28
2023-04-24T03:07:00.057Z,99304.94
2023-04-24T03:09:12.473Z,99307.63
2023-04-24T03:11:25.679Z,99306.99
2023-04-24T03:13:36.990Z,99310.84
2023-04-24T03:15:49.746Z,99308.39
2023-04-24T03:18:04.355Z,99308.7
2023-04-24T03:20:17.513Z,99307.83
2023-04-24T03:22:30.877Z,99306.41
2023-04-24T03:24:44.276Z,99310.67
2023-04-24T03:26:57.451Z,99309.37
2023-04-24T03:29:09.081Z,99315.29
2023-04-24T03:31:22.752Z,99323.59
2023-04-24T03:33:37.356Z,99327.36
2023-04-24T03:35:50.416Z,99326.3
2023-04-24T03:38:03.443Z,99325.38
2023-04-24T03:40:15.454Z,99321.16
2023-04-24T03:42:28.216Z,99323.09
2023-04-24T03:44:41.175Z,99330.63
2023-04-24T03:46:53.178Z,99336.45
2023-04-24T03:49:04.302Z,99330.95
2023-04-24T03:51:15.419Z,99331.31
2023-04-24T03:53:28.616Z,99333.09
2023-04-24T03:55:40.856Z,99329.23
2023-04-24T03:57:54.313Z,99329.49
2023-04-24T04:00:06.976Z,99332.77
2023-04-24T04:02:18.746Z,99329.28
2023-04-24T04:04:33.780Z,99330.98
2023-04-24T04:06:47.072Z,99331.57
2023-04-24T04:08:58.532Z,99332.72
2023-04-24T04:11:10.292Z,99333.06
2023-04-24T04:13:23.309Z,99331.97
2023-04-24T04:15:36.870Z,99330.64
2023-04-24T04:17:51.032Z,99329.95
2023-04-24T04:20:03.613Z,99325.4
2023-04-24T04:22:15.659Z,99325.54
2023-04-24T04:24:27.738Z,99328.59
2023-04-24T04:26:39.253Z,99323.09
2023-04-24T04:28:50.674Z,99322.48
2023-04-24T04:31:03.913Z,99317.03
2023-04-24T04:33:15.199Z,99310.68
2023-04-24T04:35:27.160Z,99318.85
2023-04-24T04:37:41.069Z,99314.05
2023-04-24T04:39:56.733Z,99310.38
2023-04-24T04:42:09.672Z,99308.78
2023-04-24T04:44:21.513Z,99302.38
2023-04-24T04:46:36.478Z,99299.44
2023-04-24T04:48:48.916Z,99300.16
2023-04-24T04:51:00.453Z,99294.86
2023-04-24T04:53:13.098Z,99295.72
2023-04-24T04:55:25.323Z,99293.99
2023-04-24T04:57:40.353Z,99291.59
2023-04-24T04:59:53.418Z,99283.88
2023-04-24T05:02:05.509Z,99284.99
2023-04-24T05:04:18.894Z,99284.36
2023-04-24T05:06:35.373Z,99283.81
2023-04-24T05:08:50.517Z,99285.3
2023-04-24T05:11:04.294Z,99283.26
2023-04-24T05:13:32.079Z,99273.03
2023-04-24T05:15:54.136Z,99271.48
2023-04-24T05:18:08.436Z,99266.54
2023-04-24T05:20:23.558Z,99272.45
2023-04-24T05:22:39.994Z,99269.8
2023-04-24T05:24:53.656Z,99265.25
2023-04-24T05:27:06.513Z,99268.23
2023-04-24T05:29:20.881Z,99268.93
2023-04-24T05:31:37.768Z,99263.09
2023-04-24T05:33:51.861Z,99258.84
2023-04-24T05:36:04.818Z,99261.13
2023-04-24T05:38:24.738Z,99261.41
2023-04-24T05:40:38.673Z,99258.44
2023-04-24T05:42:52.597Z,99254.8
2023-04-24T05:45:06.774Z,99261.41
2023-04-24T05:47:25.151Z,99259.91
2023-04-24T05:49:36.280Z,99262.97
2023-04-24T05:51:52.840Z,99265.8
2023-04-24T05:54:05.836Z,99262.05
2023-04-24T05:56:19.474Z,99264.74
2023-04-24T05:58:37.499Z,99265.89
2023-04-24T06:00:49.981Z,99258.75
2023-04-24T06:03:09.719Z,99258.4
2023-04-24T06:05:23.707Z,99253.68
2023-04-24T06:07:36.481Z,99254.73
2023-04-24T06:09:48.575Z,99254.8
2023-04-24T06:12:02.157Z,99253.13
2023-04-24T06:14:13.917Z,99251.23
2023-04-24T06:16:25.285Z,99253.97
2023-04-24T06:18:38.312Z,99251.45
2023-04-24T06:20:51.780Z,99249.75
2023-04-24T06:23:03.317Z,99252.2
2023-04-24T06:25:17.619Z,99249.06
2023-04-24T06:27:29.556Z,99244.47
2023-04-24T06:29:44.667Z,99243.13
2023-04-24T06:32:03.303Z,99244.25
2023-04-24T06:34:13.293Z,99241.46
2023-04-24T06:36:27.063Z,99244.16
2023-04-24T06:38:42.262Z,99249.61
2023-04-24T06:40:55.498Z,99245.34
2023-04-24T06:43:07.835Z,99243.48
2023-04-24T06:45:26.058Z,99241.34
2023-04-24T06:47:39.111Z,99236.02
2023-04-24T06:49:51.554Z,99240.06
2023-04-24T06:52:07.149Z,99243.09
2023-04-24T06:54:19.538Z,99241.01
2023-04-24T06:56:33.256Z,99246.86
2023-04-24T06:58:47.997Z,99243.12
2023-04-24T07:01:02.742Z,99246.2
2023-04-24T07:03:16.984Z,99240.31
2023-04-24T07:05:31.416Z,99240.55
2023-04-24T07:07:43.073Z,99240.69
2023-04-24T07:09:55.195Z,99246.89
2023-04-24T07:12:10.041Z,99247.74
2023-04-24T07:14:22.522Z,99247.5
2023-04-24T07:16:37.196Z,99244.19
2023-04-24T07:18:54.772Z,99243.41
2023-04-24T07:21:07.639Z,99243.16
2023-04-24T07:23:19.437Z,99241.7
2023-04-24T07:25:32.267Z,99242.6
2023-04-24T07:27:45.680Z,99242.75
2023-04-24T07:29:59.279Z,99245.88
2023-04-24T07:32:12.455Z,99244.92
2023-04-24T07:34:27.051Z,99243.49
2023-04-24T07:36:48.324Z,99244.75
2023-04-24T07:39:07.028Z,99243.66
2023-04-24T07:41:28.381Z,99236.75
2023-04-24T07:43:45.036Z,99239.59
2023-04-24T07:46:03.631Z,99235.84
2023-04-24T07:48:17.513Z,99235.47
2023-04-24T07:50:34.159Z,99235.13
2023-04-24T07:52:45.286Z,99227.2
2023-04-24T07:54:56.226Z,99230.59
2023-04-24T07:57:09.986Z,99231.2
2023-04-24T07:59:22.877Z,99231.16
2023-04-24T08:01:40.165Z,99227.68
2023-04-24T08:03:54.142Z,99227.45
2023-04-24T08:06:13.533Z,99228.99
2023-04-24T08:08:26.212Z,99230.18
2023-04-24T08:10:37.620Z,99229.05
2023-04-24T08:12:49.153Z,99230.7
2023-04-24T08:15:02.036Z,99226.32
2023-04-24T08:17:17.181Z,99231.64
2023-04-24T08:19:29.948Z,99231.72
2023-04-24T08:21:48.173Z,99235.72
2023-04-24T08:24:05.767Z,99237.05
2023-04-24T08:26:27.325Z,99237.33
2023-04-24T08:28:39.564Z,99240.19
2023-04-24T08:30:50.201Z,99241.15
2023-04-24T08:33:00.701Z,99236.82
2023-04-24T08:35:16.708Z,99236.18
2023-04-24T08:37:30.426Z,99235.71
2023-04-24T08:39:45.226Z,99233.6
2023-04-24T08:42:06.923Z,99237.94
2023-04-24T08:44:19.283Z,99230.35
2023-04-24T08:46:38.228Z,99227.38
2023-04-24T08:48:55.510Z,99221.7
2023-04-24T08:51:06.775Z,99221.81
2023-04-24T08:53:35.129Z,99215.23
2023-04-24T08:55:53.411Z,99216.42
2023-04-24T08:58:04.629Z,99217.12
2023-04-24T09:00:18.819Z,99213.09
2023-04-24T09:02:36.247Z,99219.28
2023-04-24T09:04:50.851Z,99216.79
2023-04-24T09:07:04.132Z,99212
2023-04-24T09:09:21.249Z,99210.98
2023-04-24T09:11:33.203Z,99209.28
2023-04-24T09:13:46.409Z,99208.05
2023-04-24T09:16:01.672Z,99203.23
2023-04-24T09:18:19.078Z,99206.92
2023-04-24T09:20:33.629Z,99201.86
2023-04-24T09:22:45.324Z,99199.16
2023-04-24T09:25:01.125Z,99202.26
2023-04-24T09:27:14.000Z,99201.09
2023-04-24T09:29:23.948Z,99199.09
2023-04-24T09:31:36.429Z,99197.42
2023-04-24T09:34:01.401Z,99193.44
2023-04-24T09:36:21.514Z,99187.76
2023-04-24T09:38:43.555Z,99187.16
2023-04-24T09:40:54.868Z,99187.95
2023-04-24T09:43:08.369Z,99186.94
2023-04-24T09:45:20.289Z,99183.53
2023-04-24T09:47:34.882Z,99184.23
2023-04-24T09:49:45.435Z,99181.58
2023-04-24T09:51:57.448Z,99176.86
2023-04-24T09:54:09.222Z,99173.2
2023-04-24T09:56:19.167Z,99170.95
2023-04-24T09:58:31.871Z,99170.88
2023-04-24T10:00:48.332Z,99164.95
2023-04-24T10:03:07.161Z,99164.13
2023-04-24T10:05:23.089Z,99158.42
2023-04-24T10:07:36.492Z,99153.47
2023-04-24T10:10:03.604Z,99156.77
2023-04-24T10:12:44.006Z,99156.34
2023-04-24T10:15:37.719Z,99153.67
2023-04-24T10:18:36.330Z,99150.12
2023-04-24T10:21:10.046Z,99147.06
2023-04-24T10:29:27.838Z,99145.49
2023-04-24T10:32:19.774Z,99143.14
2023-04-24T10:37:32.030Z,99133.98
2023-04-24T10:40:02.543Z,99136.36
2023-04-24T10:42:58.669Z,99133.51
2023-04-24T10:45:43.611Z,99128.14
2023-04-24T10:48:19.886Z,99126.92
2023-04-24T10:50:38.932Z,99124.26
2023-04-24T10:53:17.780Z,99127.47
2023-04-24T10:55:44.689Z,99119.39
2023-04-24T10:57:58.904Z,99113.9
2023-04-24T11:03:00.127Z,99109.11
2023-04-24T11:05:17.668Z,99105.5
2023-04-24T11:07:36.461Z,99109.01
2023-04-24T11:10:08.651Z,99113.81
2023-04-24T11:12:42.630Z,99109.16
2023-04-24T11:15:21.579Z,99107.11
2023-04-24T11:17:54.961Z,99103.21
2023-04-24T11:20:46.928Z,99100.59
2023-04-24T11:23:26.619Z,99101.06
2023-04-24T11:25:45.417Z,99096.23
2023-04-24T11:28:17.203Z,99093.04
2023-04-24T11:30:48.005Z,99099.78
2023-04-24T11:33:21.507Z,99093.67
2023-04-24T11:35:43.090Z,99094.94
2023-04-24T11:38:23.898Z,99089.75
2023-04-24T11:41:10.568Z,99094.25
2023-04-24T11:43:30.141Z,99093.81
2023-04-24T11:45:49.565Z,99089.91
2023-04-24T11:50:58.409Z,99086.38
2023-04-24T11:53:26.418Z,99090.48
2023-04-24T11:55:48.681Z,99086.81
2023-04-24T11:58:17.232Z,99090.67
2023-04-24T12:00:44.824Z,99107.88
2023-04-24T12:03:11.840Z,99126.55
2023-04-24T12:05:40.055Z,99124.26
2023-04-24T12:07:55.127Z,99127.89
2023-04-24T12:10:07.104Z,99121.38
2023-04-24T12:12:23.945Z,99128.37
2023-04-24T12:14:38.441Z,99144.98
2023-04-24T12:16:54.669Z,99148.11
2023-04-24T12:19:10.805Z,99143.28
2023-04-24T12:21:28.622Z,99155.41
2023-04-24T12:23:43.686Z,99144.22
2023-04-24T12:25:58.223Z,99134.86
2023-04-24T12:28:10.181Z,99133.69
2023-04-24T12:30:25.422Z,99142.69
2023-04-24T12:35:52.873Z,99145.34
2023-04-24T12:38:05.000Z,99148.68
2023-04-24T12:40:15.859Z,99136.83
2023-04-24T12:42:36.903Z,99141.16
2023-04-24T12:44:47.942Z,99139.63
2023-04-24T12:46:59.006Z,99144.05
2023-04-24T12:49:18.780Z,99139.7
2023-04-24T12:51:31.626Z,99139.8
2023-04-24T12:53:46.981Z,99139.88
2023-04-24T12:56:08.277Z,99137.47
2023-04-24T12:58:25.735Z,99126.5
2023-04-24T13:00:46.213Z,99126.95
2023-04-24T13:05:35.700Z,99115.7
2023-04-24T13:07:46.266Z,99112.51
2023-04-24T13:09:58.562Z,99102.63
2023-04-24T13:12:11.858Z,99089.3
2023-04-24T13:14:28.868Z,99089.2
2023-04-24T13:16:44.619Z,99087.84
2023-04-24T13:19:00.405Z,99091
2023-04-24T13:21:11.706Z,99093.52
2023-04-24T13:23:24.024Z,99093.92
2023-04-24T13:25:37.368Z,99098.43
2023-04-24T13:27:49.682Z,99098.23
2023-04-24T13:30:03.424Z,99094.03
2023-04-24T13:32:18.414Z,99087.07
2023-04-24T13:34:39.467Z,99075.48
2023-04-24T13:36:57.688Z,99071.89
2023-04-24T13:39:19.741Z,99061.76
2023-04-24T13:41:39.227Z,99057.71
2023-04-24T13:43:57.442Z,99055.08
2023-04-24T13:46:16.777Z,99056.41
2023-04-24T13:48:31.942Z,99048.75
2023-04-24T13:50:47.045Z,99040.63
2023-04-24T13:53:04.161Z,99038.34
2023-04-24T13:55:16.465Z,99034.45
2023-04-24T13:57:29.195Z,99033.95
2023-04-24T13:59:47.306Z,99033.92
2023-04-24T14:02:01.290Z,99033.88
2023-04-24T14:04:15.039Z,99024.84
2023-04-24T14:06:33.240Z,99021.19
2023-04-24T14:08:47.888Z,99019.23
2023-04-24T14:10:59.660Z,99018.78
2023-04-24T14:13:30.684Z,99016.44
2023-04-24T14:16:01.097Z,99013.69
2023-04-24T14:18:33.683Z,99013.97
2023-04-24T14:21:19.281Z,99006.58
2023-04-24T14:23:53.146Z,99008.45
2023-04-24T14:26:31.028Z,99000.7
2023-04-24T14:29:19.480Z,98995.79
2023-04-24T14:31:49.129Z,98995.92
2023-04-24T14:37:21.207Z,98995.36
2023-04-24T14:40:45.384Z,98986.13
2023-04-24T14:43:36.505Z,98986.09
2023-04-24T14:46:26.993Z,98982.16
2023-04-24T14:49:19.228Z,98976.64
2023-04-24T14:52:25.865Z,98971.53
2023-04-24T14:54:41.930Z,98968.7
2023-04-24T14:56:55.971Z,98968.54
2023-04-24T14:59:10.359Z,98967.67
2023-04-24T15:01:22.000Z,98965.9
2023-04-24T15:03:38.876Z,98961.72
2023-04-24T15:05:54.209Z,98962.09
2023-04-24T15:08:05.853Z,98960.66
2023-04-24T15:10:17.150Z,98959.23
2023-04-24T15:12:32.991Z,98956.42
2023-04-24T15:14:45.802Z,98953.88
2023-04-24T15:17:00.810Z,98952.77
2023-04-24T15:19:17.928Z,98950.2
2023-04-24T15:21:41.114Z,98947
2023-04-24T15:27:04.614Z,98935.27
2023-04-24T15:29:25.435Z,98933.78
2023-04-24T15:31:41.486Z,98933.35
2023-04-24T15:34:02.009Z,98933.37
2023-04-24T15:36:13.336Z,98933.23
2023-04-24T15:38:27.965Z,98928.31
2023-04-24T15:40:41.812Z,98923.98
2023-04-24T15:42:55.147Z,98921.66
2023-04-24T15:45:08.466Z,98917.56
2023-04-24T15:47:24.645Z,98914.52
2023-04-24T15:49:37.680Z,98914.64
2023-04-24T15:51:48.625Z,98912.02
2023-04-24T15:54:02.162Z,98912.45
2023-04-24T15:56:21.443Z,98910.38
2023-04-24T15:58:42.141Z,98912.07
2023-04-24T16:00:59.731Z,98906.02
2023-04-24T16:03:15.730Z,98904.06
2023-04-24T16:05:28.263Z,98902.56
2023-04-24T16:07:40.862Z,98901.37
2023-04-24T16:09:55.607Z,98897.91
2023-04-24T16:12:08.889Z,98895.08
2023-04-24T16:14:22.544Z,98898.65
2023-04-24T16:16:37.871Z,98896.2
2023-04-24T16:18:56.086Z,98899.86
2023-04-24T16:21:10.507Z,98899.91
2023-04-24T16:23:24.947Z,98899.94
2023-04-24T16:25:38.987Z,98895.28
2023-04-24T16:27:52.524Z,98896.8
2023-04-24T16:30:06.665Z,98895.66
2023-04-24T16:32:23.745Z,98898.44
2023-04-24T16:34:36.587Z,98891.77
2023-04-24T16:36:50.805Z,98893.8
2023-04-24T16:39:11.893Z,98893.03
2023-04-24T16:41:29.684Z,98896.48
2023-04-24T16:43:50.835Z,98894.73
2023-04-24T16:46:09.242Z,98895.11
2023-04-24T16:48:24.403Z,98895.59
2023-04-24T16:50:39.366Z,98892.94
2023-04-24T16:53:01.124Z,98898.21
2023-04-24T16:55:16.445Z,98892.95
2023-04-24T16:57:29.263Z,98897.45
2023-04-24T16:59:41.326Z,98888.41
2023-04-24T17:02:00.199Z,98888.61
2023-04-24T17:04:14.602Z,98896.43
2023-04-24T17:06:31.943Z,98892.41
2023-04-24T17:09:00.587Z,98894.45
2023-04-24T17:11:40.855Z,98887.8
2023-04-24T17:13:53.365Z,98893.28
2023-04-24T17:16:11.893Z,98888.96
2023-04-24T17:18:28.691Z,98888.52
2023-04-24T17:20:42.865Z,98890.66
2023-04-24T17:22:56.930Z,98888.94
2023-04-24T17:25:13.344Z,98894.95
2023-04-24T17:27:31.069Z,98895.88
2023-04-24T17:29:53.084Z,98897.81
2023-04-24T17:32:16.530Z,98899.88
2023-04-24T17:34:41.875Z,98901.25
2023-04-24T17:36:58.766Z,98898.89
2023-04-24T17:39:18.111Z,98898.72
2023-04-24T17:41:35.867Z,98901.39
2023-04-24T17:43:53.948Z,98900.42
2023-04-24T17:46:13.505Z,98905.65
2023-04-24T17:48:28.745Z,98906.3
2023-04-24T17:50:43.448Z,98900.34
2023-04-24T17:53:03.714Z,98905.92
2023-04-24T17:55:22.009Z,98903.45
2023-04-24T17:57:37.409Z,98901.09
2023-04-24T17:59:51.547Z,98904.28
2023-04-24T18:02:08.998Z,98899.88
2023-04-24T18:04:28.711Z,98900.75
2023-04-24T18:06:58.055Z,98900.98
2023-04-24T18:09:16.488Z,98910.38
2023-04-24T18:11:33.125Z,98909.58
2023-04-24T18:13:47.344Z,98908.08
2023-04-24T18:16:03.639Z,98912.38
2023-04-24T18:18:25.688Z,98913.59
2023-04-24T18:20:40.623Z,98915.03
2023-04-24T18:23:02.927Z,98912.31
2023-04-24T18:25:22.906Z,98917.16
2023-04-24T18:27:39.812Z,98920.67
2023-04-24T18:30:00.518Z,98922.95
2023-04-24T18:32:29.709Z,98924.51
2023-04-24T18:34:43.547Z,98926.77
2023-04-24T18:37:04.984Z,98927.06
2023-04-24T18:39:26.687Z,98930.38
2023-04-24T18:41:44.468Z,98929.51
2023-04-24T18:44:02.767Z,98938.02
2023-04-24T18:46:32.193Z,98937.52
2023-04-24T18:48:53.189Z,98942.69
2023-04-24T18:51:11.292Z,98948.66
2023-04-24T18:53:23.955Z,98951.55
2023-04-24T18:55:37.994Z,98950.67
2023-04-24T18:57:55.865Z,98953.57
2023-04-24T19:00:20.971Z,98957.38
2023-04-24T19:02:38.543Z,98954.21
2023-04-24T19:04:52.768Z,98954.45
2023-04-24T19:07:05.358Z,98950.61
2023-04-24T19:09:21.450Z,98950.75
2023-04-24T19:11:40.494Z,98948.07
2023-04-24T19:13:54.630Z,98950.47
2023-04-24T19:16:09.337Z,98950.61
2023-04-24T19:18:33.730Z,98948.64
2023-04-24T19:20:49.167Z,98945.03
2023-04-24T19:23:09.565Z,98950.64
2023-04-24T19:25:23.519Z,98952.11
2023-04-24T19:27:39.069Z,98950.2
2023-04-24T19:29:53.948Z,98950.77
2023-04-24T19:32:07.775Z,98953.52
2023-04-24T19:34:22.912Z,98947.75
2023-04-24T19:36:37.316Z,98953.66
2023-04-24T19:38:52.202Z,98953.99
2023-04-24T19:41:11.989Z,98951.63
2023-04-24T19:43:27.310Z,98953.13
2023-04-24T19:45:44.151Z,98959.92
2023-04-24T19:47:59.805Z,98961.25
2023-04-24T19:50:29.975Z,98971.92
2023-04-24T19:52:46.656Z,98977.57
2023-04-24T19:54:59.317Z,98987.7
2023-04-24T19:57:16.606Z,98991.88
2023-04-24T19:59:36.021Z,98998.89
2023-04-24T20:01:50.655Z,98994.92
2023-04-24T20:04:03.765Z,98995.64
2023-04-24T20:06:18.297Z,99001.91
2023-04-24T20:08:34.037Z,99003.42
2023-04-24T20:10:47.413Z,99000.61
2023-04-24T20:13:00.682Z,98999.78
2023-04-24T20:15:13.077Z,99001.31
2023-04-24T20:17:26.235Z,99004.41
2023-04-24T20:19:39.422Z,98999.28
2023-04-24T20:21:51.663Z,99003.88
2023-04-24T20:24:04.662Z,98996.16
2023-04-24T20:26:18.896Z,99000.11
2023-04-24T20:28:39.015Z,98997.84
2023-04-24T20:30:54.867Z,98992.97
2023-04-24T20:33:10.087Z,98994.63
2023-04-24T20:35:34.834Z,98997.93
2023-04-24T20:37:45.799Z,98994.71
2023-04-24T20:39:56.474Z,98995.79
2023-04-24T20:42:10.555Z,99003.48
2023-04-24T20:44:21.294Z,99003.05
2023-04-24T20:46:32.487Z,99008.09
2023-04-24T20:48:43.712Z,99012.66
2023-04-24T20:51:00.001Z,99012.64
2023-04-24T20:53:11.112Z,99011.7
2023-04-24T20:55:21.704Z,99014.78
2023-04-24T20:57:32.598Z,99021.17
2023-04-24T20:59:43.236Z,99024.64
2023-04-24T21:01:53.653Z,99023.15
2023-04-24T21:04:05.295Z,99020.55
2023-04-24T21:06:18.196Z,99019.47
2023-04-24T21:08:29.832Z,99021.08
2023-04-24T21:10:42.075Z,99024.54
2023-04-24T21:12:59.174Z,99023.84
2023-04-24T21:15:15.012Z,99022.82
2023-04-24T21:17:26.979Z,99017.36
2023-04-24T21:19:39.729Z,99015.44
2023-04-24T21:21:51.509Z,99012.78
2023-04-24T21:24:02.930Z,99011.44
2023-04-24T21:26:13.071Z,99010.44
2023-04-24T21:28:25.480Z,99005.89
2023-04-24T21:30:37.433Z,99009.16
2023-04-24T21:32:49.811Z,99010.55
2023-04-24T21:35:02.046Z,99011.98
2023-04-24T21:37:12.569Z,99012.93
2023-04-24T21:39:22.614Z,99015.58
2023-04-24T21:41:33.968Z,99016.55
2023-04-24T21:43:50.703Z,99011.19
2023-04-24T21:46:02.296Z,99010.36
2023-04-24T21:48:14.209Z,99011.66
2023-04-24T21:50:27.788Z,99011.2
2023-04-24T21:52:41.528Z,99012.52
2023-04-24T21:54:54.192Z,99013.7
2023-04-24T21:57:05.395Z,99011.18
2023-04-24T21:59:15.533Z,99017
2023-04-24T22:01:25.956Z,99017.61
2023-04-24T22:03:37.825Z,99016.45
2023-04-24T22:05:49.091Z,99016.13
2023-04-24T22:08:00.722Z,99021.11
2023-04-24T22:10:16.560Z,99018.16
2023-04-24T22:12:27.277Z,99023.3
2023-04-24T22:14:37.893Z,99026.04
2023-04-24T22:16:48.724Z,99027.3
2023-04-24T22:19:00.154Z,99027.28
2023-04-24T22:21:12.274Z,99030.23
2023-04-24T22:23:23.515Z,99022.02
2023-04-24T22:25:37.951Z,99018.73
2023-04-24T22:27:48.936Z,99017.23
2023-04-24T22:29:59.370Z,99016.63
2023-04-24T22:32:11.732Z,99016.49
2023-04-24T22:34:22.974Z,99013.14
2023-04-24T22:36:34.672Z,99013.63
2023-04-24T22:38:46.433Z,99015.79
2023-04-24T22:40:56.740Z,99012.49
2023-04-24T22:43:12.053Z,99015.32
2023-04-24T22:45:24.871Z,99018.11
2023-04-24T22:47:36.145Z,99020.11
2023-04-24T22:49:46.550Z,99021.88
2023-04-24T22:51:57.411Z,99023.94
2023-04-24T22:54:08.534Z,99021.05
2023-04-24T22:56:20.458Z,99027.42
2023-04-24T22:58:31.586Z,99031.24
2023-04-24T23:00:44.127Z,99037.5
2023-04-24T23:02:54.832Z,99040.93
2023-04-24T23:05:05.410Z,99034.24
2023-04-24T23:07:17.589Z,99037.95
2023-04-24T23:09:30.217Z,99029.06
2023-04-24T23:11:40.818Z,99028.94
2023-04-24T23:13:51.257Z,99025.42
2023-04-24T23:16:02.186Z,99024.78
2023-04-24T23:18:12.549Z,99023.05
2023-04-24T23:20:23.031Z,99015.66
2023-04-24T23:22:33.477Z,99016.58
2023-04-24T23:24:44.693Z,99017.17
2023-04-24T23:26:55.232Z,99015.34
2023-04-24T23:29:06.539Z,99015.24
2023-04-24T23:31:18.232Z,99016.95
2023-04-24T23:33:28.104Z,99012.52
2023-04-24T23:35:38.471Z,99009.25
2023-04-24T23:37:49.363Z,99010.7
2023-04-24T23:39:59.772Z,99012.34
2023-04-24T23:42:10.590Z,99018.71
2023-04-24T23:44:23.055Z,99015.11
2023-04-24T23:46:35.380Z,99013.88
2023-04-24T23:48:47.292Z,99007.67
2023-04-24T23:51:03.432Z,99004.28
2023-04-24T23:53:15.053Z,99005.02
2023-04-24T23:55:25.252Z,99003.42
2023-04-24T23:57:35.333Z,99002.41
2023-04-24T23:59:52.171Z,99001.77
